Time;durP1;ratioP1;P1;durP2;ratioP2;P2;SDS_P1;SDS_P2;PMS_P1;PMS_P2;Temp;Humidity;BMP_temperature;BMP_pressure;BME280_temperature;BME280_humidity;BME280_pressure;Samples;Min_cycle;Max_cycle;Signal;HPM_P1;HPM_P2
2021/07/13 05:10:36;;;;;;;;;15.33;12.67;;;;;18.73;69.06;100748.38;5769217;24;47038;-86
2021/07/13 05:13:02;;;;;;;;;17.67;14.67;;;;;18.81;69.34;100758.00;4745916;29;46035;-80
2021/07/13 05:15:27;;;;;;;;;16.00;13.00;;;;;18.82;69.01;100757.13;4772441;29;46317;-81
2021/07/13 05:17:53;;;;;;;;;18.00;13.67;;;;;18.83;69.08;100765.06;4772286;29;45355;-81
2021/07/13 05:20:18;;;;;;;;;18.00;15.67;;;;;18.81;69.18;100753.56;4772596;29;45287;-83
2021/07/13 05:22:44;;;;;;;;;16.67;15.33;;;;;18.88;69.47;100761.44;4756600;29;45630;-82
2021/07/13 05:25:12;;;;;;;;;20.00;16.00;;;;;18.91;69.32;100758.75;4772159;29;46090;-82
2021/07/13 05:27:39;;;;;;;;;14.33;13.00;;;;;18.89;69.56;100766.75;4772416;29;45456;-82
2021/07/13 05:30:09;;;;;;;;;15.67;14.67;;;;;18.94;69.37;100777.31;4772107;29;45205;-82
2021/07/13 05:32:35;;;;;;;;;19.00;16.33;;;;;18.96;69.56;100780.84;4772342;29;45397;-82
2021/07/13 05:35:00;;;;;;;;;15.00;15.00;;;;;18.95;69.40;100776.44;4771765;29;45532;-81
2021/07/13 05:37:26;;;;;;;;;17.67;14.67;;;;;18.97;69.00;100777.28;4772208;29;45310;-82
2021/07/13 05:39:51;;;;;;;;;16.67;14.33;;;;;18.94;68.95;100780.00;4772276;29;45421;-81
2021/07/13 05:42:16;;;;;;;;;19.67;15.33;;;;;18.96;68.93;100786.16;4772097;29;45352;-82
2021/07/13 05:44:42;;;;;;;;;16.33;15.00;;;;;18.96;68.72;100792.38;4772202;29;45349;-82
2021/07/13 05:47:07;;;;;;;;;16.00;14.33;;;;;18.94;69.31;100793.31;4772002;29;45335;-82
2021/07/13 05:49:33;;;;;;;;;14.33;13.00;;;;;18.95;69.43;100795.09;4772033;29;45553;-82
2021/07/13 05:52:00;;;;;;;;;18.67;16.33;;;;;18.95;69.37;100790.59;4772388;29;45396;-81
2021/07/13 05:54:25;;;;;;;;;17.33;14.33;;;;;18.97;69.34;100785.28;4755568;29;47056;-82
2021/07/13 05:56:51;;;;;;;;;15.67;13.67;;;;;18.99;69.21;100788.78;4771887;29;45494;-82
2021/07/13 05:59:16;;;;;;;;;17.67;14.33;;;;;19.00;69.41;100792.31;4771969;29;45387;-82
2021/07/13 06:01:42;;;;;;;;;18.33;17.00;;;;;19.01;69.24;100789.66;4772049;29;45474;-82
2021/07/13 06:04:07;;;;;;;;;22.67;19.67;;;;;18.98;68.99;100779.03;4771682;29;46086;-82
2021/07/13 06:06:32;;;;;;;;;16.00;16.00;;;;;19.01;68.93;100794.09;4772048;29;45222;-82
2021/07/13 06:08:58;;;;;;;;;17.67;14.67;;;;;19.01;69.15;100787.00;4771983;29;45153;-82
2021/07/13 06:11:23;;;;;;;;;13.33;12.33;;;;;19.01;69.45;100784.31;4771647;29;45316;-82
2021/07/13 06:13:48;;;;;;;;;16.00;16.00;;;;;19.02;69.44;100778.06;4771756;29;45244;-82
2021/07/13 06:16:14;;;;;;;;;19.67;16.33;;;;;19.04;69.16;100776.25;4771886;29;45357;-82
2021/07/13 06:18:39;;;;;;;;;18.00;17.33;;;;;19.05;69.05;100772.72;4771642;29;45511;-83
2021/07/13 06:21:08;;;;;;;;;17.67;14.67;;;;;19.05;69.46;100778.03;4771914;29;45305;-81
2021/07/13 06:23:34;;;;;;;;;20.00;19.67;;;;;19.06;69.14;100782.44;4771306;29;46036;-81
2021/07/13 06:25:59;;;;;;;;;20.00;16.67;;;;;19.08;69.30;100788.63;4771667;29;45393;-83
2021/07/13 06:29:31;;;;;;;;;17.33;17.33;;;;;19.10;69.59;100784.16;4771756;29;45685;-91
2021/07/13 06:39:20;;;;;;;;;;;;;;;;;;;;;
2021/07/13 06:41:54;;;;;;;;;20.33;17.00;;;;;19.09;69.69;100771.75;4792871;29;68673;-91
2021/07/13 06:44:27;;;;;;;;;19.33;14.67;;;;;19.00;69.88;100752.34;4798895;24;45567;-91
2021/07/13 06:47:29;;;;;;;;;22.33;18.00;;;;;19.13;69.40;100772.56;4788924;24;48022;-92
2021/07/13 06:52:26;;;;;;;;;21.33;19.67;;;;;19.04;69.75;100752.28;4774397;29;45410;-89
2021/07/13 06:55:02;;;;;;;;;;;;;;;;;;;;;
2021/07/13 07:11:05;;;;;;;;;21.00;21.00;;;;;19.16;69.62;100753.03;1855062;24;46734;-93
2021/07/13 07:18:37;;;;;;;;;24.67;18.67;;;;;19.12;69.77;100740.63;5008531;24;46579;-90
2021/07/13 07:21:28;;;;;;;;;22.67;21.67;;;;;19.17;69.57;100741.44;4799977;29;45416;-92
2021/07/13 07:31:43;;;;;;;;;;;;;;;;;;;;;
2021/07/13 07:40:31;;;;;;;;;20.33;18.00;;;;;19.27;69.68;100767.00;4837008;24;45367;-92
2021/07/13 07:43:59;;;;;;;;;21.33;17.67;;;;;19.29;69.73;100778.50;4787704;29;45235;-91
2021/07/13 07:49:10;;;;;;;;;;;;;;;;;;;;;
2021/07/13 07:54:16;;;;;;;;;21.67;18.33;;;;;19.20;69.69;100752.94;5122410;24;46674;-90
2021/07/13 07:56:44;;;;;;;;;21.33;19.33;;;;;19.26;69.77;100767.03;4829244;29;45244;-90
2021/07/13 08:01:47;;;;;;;;;17.33;16.00;;;;;19.24;69.53;100758.19;4937081;24;47620;-91
2021/07/13 08:10:20;;;;;;;;;22.33;18.67;;;;;19.48;69.63;100795.97;4884850;24;45409;-91
2021/07/13 08:15:33;;;;;;;;;;;;;;;;;;;;;
2021/07/13 08:18:54;;;;;;;;;21.00;16.33;;;;;19.53;69.67;100792.31;4812579;29;68862;-93
2021/07/13 08:25:09;;;;;;;;;20.33;17.67;;;;;19.56;69.75;100808.22;5449623;24;74188;-91
2021/07/13 08:27:58;;;;;;;;;19.00;18.67;;;;;19.39;69.30;100778.34;4733107;30;45481;-92
2021/07/13 08:30:49;;;;;;;;;;;;;;;;;;;;;
2021/07/13 08:34:17;;;;;;;;;;;;;;;;;;;;;
2021/07/13 08:42:46;;;;;;;;;18.33;18.33;;;;;19.44;69.75;100776.47;4738041;29;44890;-91
2021/07/13 08:45:18;;;;;;;;;18.67;16.33;;;;;19.45;69.65;100780.91;4744517;30;45394;-90
2021/07/13 08:52:12;;;;;;;;;16.67;16.00;;;;;19.58;69.63;100799.34;4916339;24;45945;-90
2021/07/13 08:55:19;;;;;;;;;25.67;17.33;;;;;19.59;70.52;100803.75;4792321;29;44761;-91
2021/07/13 08:58:09;;;;;;;;;;;;;;;;;;;;;
2021/07/13 09:11:38;;;;;;;;;18.00;16.33;;;;;19.40;70.61;100777.44;5008166;24;74235;-93
2021/07/13 09:23:03;;;;;;;;;;;;;;;;;;;;;
2021/07/13 09:26:05;;;;;;;;;;;;;;;;;;;;;
2021/07/13 09:32:25;;;;;;;;;15.00;13.00;;;;;19.54;70.87;100820.72;4824011;24;45604;-91
2021/07/13 09:40:43;;;;;;;;;17.33;13.67;;;;;19.41;70.86;100801.41;4886742;24;45059;-93
2021/07/13 09:49:39;;;;;;;;;18.00;17.00;;;;;19.39;70.66;100802.34;4762505;29;44872;-89
2021/07/13 09:55:24;;;;;;;;;17.33;16.67;;;;;19.37;71.18;100807.72;5280214;24;45899;-92
2021/07/13 09:58:12;;;;;;;;;18.33;16.33;;;;;19.53;71.26;100834.97;4794750;29;47425;-93
2021/07/13 10:13:25;;;;;;;;;18.00;14.33;;;;;19.42;72.91;100837.81;4793501;29;45235;-94
2021/07/13 10:15:52;;;;;;;;;16.00;14.33;;;;;19.36;73.43;100818.38;4811222;24;45342;-96
2021/07/13 10:18:19;;;;;;;;;16.67;14.33;;;;;19.30;73.16;100806.94;4815043;29;45450;-91
2021/07/13 10:20:51;;;;;;;;;14.33;14.33;;;;;19.33;73.40;100816.69;5059194;24;47848;-91
2021/07/13 10:27:40;;;;;;;;;16.67;14.33;;;;;19.48;73.21;100835.97;4680949;30;45592;-92
2021/07/13 10:32:54;;;;;;;;;17.67;16.33;;;;;19.36;73.66;100829.03;4881128;24;47213;-93
2021/07/13 10:35:24;;;;;;;;;18.33;16.00;;;;;19.31;73.14;100821.16;4829338;29;45478;-93
2021/07/13 10:37:55;;;;;;;;;22.33;20.00;;;;;19.42;73.95;100839.59;4814341;29;45441;-94
2021/07/13 10:43:27;;;;;;;;;;;;;;;;;;;;;
2021/07/13 10:58:32;;;;;;;;;23.67;17.00;;;;;19.64;74.49;100842.75;4987404;24;45522;-91
2021/07/13 11:01:20;;;;;;;;;;;;;;;;;;;;;
2021/07/13 11:09:25;;;;;;;;;24.67;18.33;;;;;19.72;74.77;100839.06;4835871;24;71562;-95
2021/07/13 11:21:30;;;;;;;;;25.33;20.00;;;;;19.84;74.55;100853.97;4896201;24;45431;-92
2021/07/13 11:39:38;;;;;;;;;28.33;22.00;;;;;19.95;74.94;100867.94;4847218;24;45480;-91
2021/07/13 11:42:22;;;;;;;;;20.33;19.00;;;;;19.95;74.63;100873.28;4857211;24;46430;-93
2021/07/13 11:56:06;;;;;;;;;;;;;;;;;;;;;
2021/07/13 11:58:35;;;;;;;;;21.33;16.33;;;;;19.82;75.06;100866.44;4817202;24;63310;-91
2021/07/13 12:04:53;;;;;;;;;19.00;17.67;;;;;19.90;75.28;100897.38;5244690;24;45350;-92
2021/07/13 12:07:19;;;;;;;;;20.00;19.00;;;;;19.74;75.46;100877.25;4760283;29;45454;-91
2021/07/13 12:09:46;;;;;;;;;21.67;17.00;;;;;19.69;75.47;100868.47;4759512;29;45587;-91
2021/07/13 12:15:08;;;;;;;;;18.00;16.00;;;;;19.67;75.77;100869.34;4839231;24;46613;-91
2021/07/13 12:19:21;;;;;;;;;20.33;16.00;;;;;19.65;75.65;100868.50;4810066;29;45443;-90
2021/07/13 12:21:16;;;;;;;;;16.33;15.33;;;;;19.64;75.43;100852.53;4792144;29;45396;-91
2021/07/13 12:27:14;;;;;;;;;19.33;16.67;;;;;19.65;75.65;100865.00;4812612;29;45233;-91
2021/07/13 12:30:15;;;;;;;;;18.67;15.67;;;;;19.75;75.95;100877.25;4818129;29;45461;-90
2021/07/13 12:33:28;;;;;;;;;;;;;;;;;;;;;
2021/07/13 12:38:29;;;;;;;;;19.33;17.67;;;;;19.63;76.44;100858.81;4827004;29;44894;-92
2021/07/13 12:41:38;;;;;;;;;25.00;20.33;;;;;19.75;76.03;100879.03;4779185;29;45243;-91
2021/07/13 12:45:09;;;;;;;;;26.33;21.67;;;;;19.64;76.15;100847.22;4782455;29;45220;-91
2021/07/13 12:47:35;;;;;;;;;29.00;23.00;;;;;19.82;76.44;100875.31;4779142;29;46464;-92
2021/07/13 12:50:35;;;;;;;;;25.67;25.00;;;;;19.83;76.19;100873.53;4775980;29;45263;-92
2021/07/13 12:53:09;;;;;;;;;31.33;27.67;;;;;19.83;76.62;100868.19;4775981;29;45481;-91
2021/07/13 12:55:47;;;;;;;;;27.33;26.00;;;;;19.86;76.41;100873.50;4779060;29;45387;-93
2021/07/13 12:58:12;;;;;;;;;31.00;27.00;;;;;19.87;76.60;100876.13;4778366;29;48176;-91
2021/07/13 13:00:40;;;;;;;;;32.33;25.67;;;;;19.76;76.12;100848.75;4782196;29;45415;-91
2021/07/13 13:03:53;;;;;;;;;33.00;28.33;;;;;19.92;76.75;100867.16;4794960;29;45375;-92
2021/07/13 13:06:33;;;;;;;;;;;;;;;;;;;;;
2021/07/13 13:09:32;;;;;;;;;30.00;25.33;;;;;19.93;76.37;100867.09;4817987;24;73459;-92
2021/07/13 13:12:00;;;;;;;;;30.67;25.67;;;;;19.88;76.31;100864.53;4766775;29;45987;-91
2021/07/13 13:14:49;;;;;;;;;;;;;;;;;;;;;
2021/07/13 13:17:43;;;;;;;;;27.00;26.33;;;;;19.88;76.43;100866.34;4776604;29;62972;-91
2021/07/13 13:20:59;;;;;;;;;;;;;;;;;;;;;
2021/07/13 13:23:30;;;;;;;;;33.00;28.67;;;;;19.86;76.09;100853.00;4776333;29;71480;-90
2021/07/13 13:25:56;;;;;;;;;31.33;27.00;;;;;19.92;76.38;100862.69;4776641;29;45419;-90
2021/07/13 13:31:41;;;;;;;;;32.67;30.00;;;;;19.90;77.08;100857.38;4734195;29;46303;-90
2021/07/13 13:34:28;;;;;;;;;;;;;;;;;;;;;
2021/07/13 13:38:35;;;;;;;;;31.67;28.00;;;;;19.87;76.71;100852.09;4686404;30;45400;-90
2021/07/13 13:43:47;;;;;;;;;33.00;29.67;;;;;19.83;75.68;100873.53;4601579;30;45348;-89
2021/07/13 13:46:47;;;;;;;;;40.33;30.33;;;;;19.80;76.20;100866.47;4590283;30;45379;-92
2021/07/13 13:49:12;;;;;;;;;39.00;30.67;;;;;19.84;76.06;100870.81;4606547;30;45508;-90
2021/07/13 13:52:02;;;;;;;;;;;;;;;;;;;;;
2021/07/13 13:54:28;;;;;;;;;31.67;31.00;;;;;19.78;76.73;100858.50;4610154;30;75404;-90
2021/07/13 13:56:53;;;;;;;;;37.33;32.67;;;;;19.81;76.74;100856.69;4608468;30;44653;-90
2021/07/13 13:59:18;;;;;;;;;37.33;30.33;;;;;19.86;76.86;100862.81;4590837;30;45384;-90
2021/07/13 14:01:44;;;;;;;;;37.00;31.67;;;;;19.88;76.30;100861.00;4602331;30;45285;-90
2021/07/13 14:04:09;;;;;;;;;45.00;33.75;;;;;19.84;76.31;100849.47;4603455;30;47168;-92
2021/07/13 14:06:35;;;;;;;;;41.00;32.67;;;;;19.99;76.89;100872.31;4600854;30;45571;-91
2021/07/13 14:09:03;;;;;;;;;38.00;33.67;;;;;19.95;76.79;100861.72;4601944;30;45371;-91
2021/07/13 14:11:34;;;;;;;;;39.00;34.50;;;;;20.06;76.83;100881.09;4585139;30;45519;-90
2021/07/13 14:14:40;;;;;;;;;;;;;;;;;;;;;
2021/07/13 14:18:01;;;;;;;;;37.00;33.25;;;;;19.93;77.16;100851.09;4597929;30;73524;-91
2021/07/13 14:24:55;;;;;;;;;;;;;;;;;;;;;
2021/07/13 14:33:56;;;;;;;;;;;;;;;;;;;;;
2021/07/13 14:36:29;;;;;;;;;44.75;36.25;;;;;20.12;76.85;100850.75;4855169;24;64954;-91
2021/07/13 14:39:48;;;;;;;;;45.75;36.75;;;;;20.23;76.78;100866.53;4829016;29;46511;-91
2021/07/13 14:46:24;;;;;;;;;41.00;34.25;;;;;20.10;76.49;100834.78;4735113;30;45311;-90
2021/07/13 14:49:44;;;;;;;;;46.00;36.75;;;;;20.16;76.96;100840.91;4685369;30;45531;-90
2021/07/13 14:52:08;;;;;;;;;45.25;34.50;;;;;20.19;76.79;100849.72;4697638;30;47111;-92
2021/07/13 14:54:44;;;;;;;;;;;;;;;;;;;;;
2021/07/13 14:57:31;;;;;;;;;37.75;33.75;;;;;20.23;76.37;100846.09;4698268;30;69126;-91
2021/07/13 15:00:06;;;;;;;;;47.75;39.50;;;;;20.29;76.59;100854.84;4702109;30;45262;-91
2021/07/13 15:03:14;;;;;;;;;45.25;37.75;;;;;20.20;76.73;100839.94;4686933;30;48168;-90
2021/07/13 15:05:42;;;;;;;;;43.25;33.50;;;;;20.21;76.77;100834.56;4666973;30;45496;-90
2021/07/13 15:08:08;;;;;;;;;38.75;34.75;;;;;20.31;77.02;100850.34;4667228;30;45437;-91
2021/07/13 15:10:34;;;;;;;;;43.25;34.25;;;;;20.31;76.89;100856.59;4667143;30;45436;-91
2021/07/13 15:12:59;;;;;;;;;44.25;35.25;;;;;20.35;76.56;100858.28;4667643;30;45493;-90
2021/07/13 15:15:30;;;;;;;;;35.75;31.75;;;;;20.23;76.42;100848.75;4667810;30;45407;-91
2021/07/13 15:17:55;;;;;;;;;25.33;23.00;;;;;20.17;76.00;100848.00;4672066;30;45407;-90
2021/07/13 15:20:24;;;;;;;;;30.00;28.67;;;;;20.02;75.30;100842.91;4704460;30;45448;-92
2021/07/13 15:23:39;;;;;;;;;31.00;26.33;;;;;19.98;75.69;100849.22;4687630;30;47440;-90
2021/07/13 15:26:04;;;;;;;;;30.00;27.00;;;;;19.94;75.27;100860.88;4694637;30;45282;-91
2021/07/13 15:28:48;;;;;;;;;34.75;30.75;;;;;19.86;75.55;100868.16;4701757;30;45506;-91
2021/07/13 15:31:22;;;;;;;;;33.33;29.67;;;;;19.95;75.76;100875.97;4687866;30;45512;-90
2021/07/13 15:33:58;;;;;;;;;35.33;30.67;;;;;19.81;76.19;100857.56;4687065;30;47294;-92
2021/07/13 15:37:21;;;;;;;;;38.33;33.67;;;;;19.77;76.32;100861.19;4686780;30;45583;-91
2021/07/13 15:40:58;;;;;;;;;36.67;33.00;;;;;19.83;76.01;100868.19;4616087;30;45462;-91
2021/07/13 15:43:43;;;;;;;;;33.33;31.00;;;;;19.81;75.94;100870.00;4585892;30;45540;-91
2021/07/13 15:47:00;;;;;;;;;;;;;;;;;;;;;
2021/07/13 15:49:26;;;;;;;;;32.67;31.33;;;;;19.77;76.14;100875.44;4565588;31;70286;-91
2021/07/13 15:51:54;;;;;;;;;36.67;29.67;;;;;19.71;76.09;100864.88;4569069;31;45337;-90
2021/07/13 15:54:33;;;;;;;;;;;;;;;;;;;;;
2021/07/13 15:57:07;;;;;;;;;36.25;32.50;;;;;19.72;76.26;100874.63;4571046;31;75130;-90
2021/07/13 15:59:48;;;;;;;;;36.67;31.67;;;;;19.79;76.50;100880.72;4572494;30;45954;-91
2021/07/13 16:02:14;;;;;;;;;39.67;34.67;;;;;19.78;76.56;100893.16;4577339;30;45270;-89
2021/07/13 16:05:09;;;;;;;;;35.33;33.00;;;;;19.74;76.27;100886.13;4609168;30;45517;-90
2021/07/13 16:07:59;;;;;;;;;;;;;;;;;;;;;
2021/07/13 16:11:02;;;;;;;;;38.33;33.33;;;;;19.61;76.50;100865.91;4609811;30;71665;-89
2021/07/13 16:13:35;;;;;;;;;39.50;31.00;;;;;19.69;76.78;100888.03;4582756;31;44840;-90
2021/07/13 16:16:16;;;;;;;;;34.67;31.00;;;;;19.66;76.79;100888.94;4615538;30;45386;-90
2021/07/13 16:18:59;;;;;;;;;;;;;;;;;;;;;
2021/07/13 16:21:33;;;;;;;;;34.67;33.00;;;;;19.62;77.01;100873.03;4796178;29;74162;-90
2021/07/13 16:24:07;;;;;;;;;30.00;29.00;;;;;19.60;76.64;100872.19;4794744;29;45404;-91
2021/07/13 16:26:33;;;;;;;;;32.33;30.33;;;;;19.72;76.59;100893.28;4797549;29;45329;-91
2021/07/13 16:28:58;;;;;;;;;31.33;30.33;;;;;19.60;77.11;100877.50;4794267;29;48525;-91
2021/07/13 16:32:11;;;;;;;;;31.33;28.67;;;;;19.72;76.77;100897.72;4798182;29;44803;-90
2021/07/13 16:38:25;;;;;;;;;33.33;28.67;;;;;19.63;77.16;100894.31;4739294;30;45538;-91
2021/07/13 16:41:10;;;;;;;;;38.67;33.33;;;;;19.63;76.84;100898.81;4721742;30;47826;-90
2021/07/13 16:44:04;;;;;;;;;34.67;29.33;;;;;19.70;76.79;100908.44;4721018;30;45330;-91
2021/07/13 16:47:09;;;;;;;;;39.33;32.33;;;;;19.73;76.65;100915.50;4700545;30;45419;-90
2021/07/13 16:49:35;;;;;;;;;32.67;30.67;;;;;19.59;76.65;100887.28;4708033;30;45666;-91
2021/07/13 16:52:00;;;;;;;;;34.00;30.33;;;;;19.65;77.32;100903.19;4720901;30;48024;-91
2021/07/13 16:54:26;;;;;;;;;35.00;30.00;;;;;19.66;76.58;100904.06;4735945;30;45348;-91
2021/07/13 16:57:04;;;;;;;;;;;;;;;;;;;;;
2021/07/13 16:59:35;;;;;;;;;32.00;27.67;;;;;19.66;76.55;100914.72;4734615;30;64720;-91
2021/07/13 17:02:04;;;;;;;;;26.33;24.33;;;;;19.61;76.38;100912.13;4720580;30;46941;-91
2021/07/13 17:04:29;;;;;;;;;26.67;26.33;;;;;19.59;76.44;100913.06;4735110;30;45454;-81
2021/07/13 17:06:55;;;;;;;;;26.33;25.33;;;;;19.58;76.53;100916.66;4734273;30;45523;-80
2021/07/13 17:09:20;;;;;;;;;33.00;27.67;;;;;19.60;76.77;100934.41;4735066;30;45423;-81
2021/07/13 17:11:45;;;;;;;;;27.00;26.00;;;;;19.58;76.32;100932.66;4734480;30;45449;-81
2021/07/13 17:14:11;;;;;;;;;28.00;25.67;;;;;19.60;76.90;100934.41;4735440;29;45358;-81
2021/07/13 17:16:36;;;;;;;;;28.67;26.00;;;;;19.61;77.03;100938.81;4752703;29;45440;-81
2021/07/13 17:19:03;;;;;;;;;27.33;24.00;;;;;19.61;76.85;100932.59;4752873;29;45361;-81
2021/07/13 17:21:28;;;;;;;;;29.67;24.67;;;;;19.59;76.65;100932.63;4751981;29;46643;-81
2021/07/13 17:23:54;;;;;;;;;26.33;22.33;;;;;19.60;77.16;100938.84;4790103;29;45417;-81
2021/07/13 17:26:19;;;;;;;;;30.67;28.33;;;;;19.61;77.17;100941.47;4808879;29;45635;-81
2021/07/13 17:28:44;;;;;;;;;29.00;27.00;;;;;19.59;77.15;100948.63;4808470;29;45435;-81
2021/07/13 17:31:10;;;;;;;;;31.67;27.00;;;;;19.60;77.11;100947.72;4808204;29;46097;-81
2021/07/13 17:33:35;;;;;;;;;32.33;28.33;;;;;19.59;77.56;100939.72;4808378;29;45301;-81
2021/07/13 17:36:01;;;;;;;;;24.67;23.00;;;;;19.52;76.91;100938.97;4808178;29;45283;-83
2021/07/13 17:38:26;;;;;;;;;25.67;24.67;;;;;19.60;77.15;100957.50;4808305;29;45295;-81
2021/07/13 17:40:51;;;;;;;;;27.00;24.67;;;;;19.59;76.99;100959.28;4808122;29;47333;-81
2021/07/13 17:43:18;;;;;;;;;28.33;26.00;;;;;19.59;76.92;100964.63;4808075;29;45249;-81
2021/07/13 17:45:45;;;;;;;;;20.00;18.67;;;;;19.55;76.89;100977.13;4791970;29;45425;-81
2021/07/13 17:48:10;;;;;;;;;22.67;21.00;;;;;19.59;77.09;100974.38;4808417;29;45329;-81
2021/07/13 17:50:36;;;;;;;;;24.67;20.00;;;;;19.59;76.99;100977.06;4807927;29;46216;-81
2021/07/13 17:53:02;;;;;;;;;20.00;18.33;;;;;19.58;76.72;100980.66;4808240;29;45590;-82
2021/07/13 17:55:28;;;;;;;;;20.00;18.33;;;;;19.55;76.13;100990.47;4808320;29;45348;-81
2021/07/13 17:57:53;;;;;;;;;17.00;15.67;;;;;19.52;76.27;100982.50;4808130;29;45275;-82
2021/07/13 18:00:18;;;;;;;;;18.00;15.67;;;;;19.51;76.42;100994.06;4807721;29;47001;-81
2021/07/13 18:02:47;;;;;;;;;16.67;15.00;;;;;19.49;76.21;100989.66;4808139;29;45313;-81
2021/07/13 18:05:13;;;;;;;;;14.00;14.00;;;;;19.43;76.33;100985.31;4808212;29;45322;-81
2021/07/13 18:07:38;;;;;;;;;19.33;15.33;;;;;19.44;75.94;100990.63;4808150;29;45234;-81
2021/07/13 18:10:08;;;;;;;;;21.00;17.33;;;;;19.43;76.24;100993.31;4807958;29;46384;-82
2021/07/13 18:12:37;;;;;;;;;17.00;16.33;;;;;19.41;76.51;100989.78;4808154;29;45396;-81
2021/07/13 18:15:04;;;;;;;;;15.00;15.00;;;;;19.38;76.67;100990.72;4807901;29;45340;-83
2021/07/13 18:17:46;;;;;;;;;19.33;14.33;;;;;19.39;76.51;101003.16;4814483;29;45485;-92
2021/07/13 18:20:12;;;;;;;;;18.67;17.67;;;;;19.31;76.74;100991.72;4822484;29;47441;-91
2021/07/13 18:22:37;;;;;;;;;17.67;16.33;;;;;19.29;76.53;100991.72;4822373;29;45246;-88
2021/07/13 18:25:04;;;;;;;;;15.00;15.00;;;;;19.36;76.14;101002.31;4821155;29;45222;-90
2021/07/13 18:27:56;;;;;;;;;20.00;20.00;;;;;19.18;76.26;100977.69;4818093;29;45386;-93
2021/07/13 18:30:22;;;;;;;;;24.00;18.67;;;;;19.20;76.19;100992.78;4834567;24;46772;-91
2021/07/13 18:32:47;;;;;;;;;20.00;17.33;;;;;19.20;76.00;100998.09;4815678;29;45374;-88
2021/07/13 18:35:13;;;;;;;;;18.33;16.00;;;;;19.23;75.79;100999.81;4811571;29;45415;-92
2021/07/13 18:37:38;;;;;;;;;21.33;19.33;;;;;19.17;76.23;100994.56;4814267;29;45304;-92
2021/07/13 18:40:05;;;;;;;;;20.00;17.33;;;;;19.25;76.43;101006.00;4813030;29;48155;-90
2021/07/13 18:42:33;;;;;;;;;18.33;17.67;;;;;19.20;75.98;101003.44;4810007;29;45328;-90
2021/07/13 18:45:45;;;;;;;;;20.00;16.33;;;;;19.21;76.30;101010.50;4813356;29;45435;-92
2021/07/13 18:48:12;;;;;;;;;18.00;16.33;;;;;19.13;75.99;101006.16;4796184;29;45482;-92
2021/07/13 18:50:45;;;;;;;;;20.33;17.00;;;;;19.13;76.00;101004.38;4810391;29;48261;-91
2021/07/13 18:53:22;;;;;;;;;16.67;15.67;;;;;19.14;76.41;101010.59;4805004;29;45491;-93
2021/07/13 18:55:48;;;;;;;;;18.00;15.67;;;;;19.08;76.12;100998.22;4796107;29;45379;-92
2021/07/13 18:58:13;;;;;;;;;18.00;16.00;;;;;19.12;76.57;101012.41;4813470;29;45407;-92
2021/07/13 19:01:24;;;;;;;;;16.00;14.67;;;;;19.02;76.20;100998.31;4801336;29;48478;-91
2021/07/13 19:04:07;;;;;;;;;22.67;19.67;;;;;19.11;76.56;101014.19;4761143;29;45494;-90
2021/07/13 19:06:54;;;;;;;;;;;;;;;;;;;;;
2021/07/13 19:10:21;;;;;;;;;18.67;17.00;;;;;18.97;76.60;100991.25;4755829;29;64340;-92
2021/07/13 19:12:47;;;;;;;;;18.67;15.00;;;;;19.01;76.94;101004.56;4688533;30;48217;-90
2021/07/13 19:19:00;;;;;;;;;19.33;16.00;;;;;18.96;76.67;101009.94;4668550;30;45436;-95
2021/07/13 19:21:35;;;;;;;;;16.00;13.33;;;;;19.07;76.50;101034.66;4669713;30;45510;-91
2021/07/13 19:24:01;;;;;;;;;23.33;17.00;;;;;18.98;76.85;101024.09;4669066;30;46244;-92
2021/07/13 19:26:44;;;;;;;;;15.00;14.33;;;;;18.94;76.73;101017.94;4672554;30;45576;-94
2021/07/13 19:29:10;;;;;;;;;15.00;15.00;;;;;18.99;76.37;101025.88;4672394;30;45621;-92
2021/07/13 19:31:36;;;;;;;;;17.67;15.33;;;;;19.05;76.76;101035.56;4676744;30;45611;-91
2021/07/13 19:39:16;;;;;;;;;20.33;19.67;;;;;18.92;77.25;101018.88;4689759;30;44855;-91
2021/07/13 19:41:41;;;;;;;;;18.00;17.00;;;;;18.96;76.91;101032.13;4738458;30;44828;-92
2021/07/13 19:50:14;;;;;;;;;21.67;19.33;;;;;19.00;76.90;101048.94;4840715;24;45182;-90
2021/07/13 19:52:41;;;;;;;;;20.67;20.33;;;;;19.05;77.18;101064.88;4816634;29;45448;-91
2021/07/13 19:59:04;;;;;;;;;18.67;17.00;;;;;18.95;77.27;101059.66;4830757;29;45473;-92
2021/07/13 20:02:42;;;;;;;;;22.67;19.00;;;;;19.02;77.28;101073.78;4835205;29;44741;-90
2021/07/13 20:05:19;;;;;;;;;15.33;15.33;;;;;19.03;77.03;101083.56;4826769;29;44842;-91
2021/07/13 20:07:52;;;;;;;;;16.33;16.00;;;;;18.91;77.08;101065.06;4843299;29;46213;-91
2021/07/13 20:11:00;;;;;;;;;;;;;;;;;;;;;
2021/07/13 20:13:47;;;;;;;;;17.67;17.00;;;;;18.98;77.03;101088.03;4834716;29;67815;-89
2021/07/13 20:16:23;;;;;;;;;21.00;19.33;;;;;18.97;76.68;101083.63;4824443;29;44866;-91
2021/07/13 20:18:49;;;;;;;;;29.67;26.33;;;;;18.94;76.86;101083.66;4834872;29;45230;-90
2021/07/13 20:21:14;;;;;;;;;51.75;43.75;;;;;18.95;76.37;101104.09;4827888;29;45272;-90
2021/07/13 20:23:46;;;;;;;;;52.50;43.75;;;;;18.80;76.66;101079.38;4828822;29;45283;-90
2021/07/13 20:26:12;;;;;;;;;46.50;38.50;;;;;18.82;76.66;101084.69;4827780;29;45483;-89
2021/07/13 20:28:37;;;;;;;;;36.50;32.50;;;;;18.84;77.00;101097.09;4827487;29;47798;-91
2021/07/13 20:31:03;;;;;;;;;30.00;26.00;;;;;18.82;76.71;101103.34;4827136;29;45465;-89
2021/07/13 20:33:29;;;;;;;;;25.67;23.33;;;;;18.73;76.56;101085.66;4812635;29;45350;-90
2021/07/13 20:35:54;;;;;;;;;23.67;19.33;;;;;18.79;76.98;101096.25;4829117;29;45216;-91
2021/07/13 20:38:20;;;;;;;;;22.67;20.67;;;;;18.74;76.81;101090.97;4812083;29;46822;-90
2021/07/13 20:40:55;;;;;;;;;23.33;19.00;;;;;18.79;76.85;101098.03;4829925;29;45357;-91
2021/07/13 20:43:26;;;;;;;;;21.33;17.67;;;;;18.68;76.57;101087.50;4813673;29;45349;-92
2021/07/13 20:45:52;;;;;;;;;21.00;19.33;;;;;18.73;76.97;101096.31;4831292;29;45340;-91
2021/07/13 20:48:17;;;;;;;;;19.00;19.00;;;;;18.73;77.16;101101.66;4839005;29;46709;-89
2021/07/13 20:50:43;;;;;;;;;22.00;19.67;;;;;18.72;76.85;101102.53;4844801;29;45306;-88
2021/07/13 20:53:09;;;;;;;;;22.33;20.00;;;;;18.80;76.98;101113.13;4835089;29;44698;-89
2021/07/13 20:55:36;;;;;;;;;24.33;20.00;;;;;18.76;76.58;101112.28;4842974;29;45209;-90
2021/07/13 20:58:05;;;;;;;;;23.67;20.33;;;;;18.72;76.98;101100.75;4819207;29;47178;-91
2021/07/13 21:00:35;;;;;;;;;25.33;24.00;;;;;18.66;76.56;101102.59;4835845;29;44770;-90
2021/07/13 21:03:25;;;;;;;;;28.67;24.33;;;;;18.74;76.74;101122.06;4815222;29;45402;-90
2021/07/13 21:06:24;;;;;;;;;28.67;27.00;;;;;18.73;77.09;101122.97;4830206;29;45303;-91
2021/07/13 21:09:36;;;;;;;;;26.00;24.67;;;;;18.59;77.01;101102.66;4827052;29;46847;-93
2021/07/13 21:12:11;;;;;;;;;24.67;19.33;;;;;18.72;77.05;101119.41;4811604;29;45480;-91
2021/07/13 21:14:36;;;;;;;;;28.00;25.67;;;;;18.63;77.28;101104.41;4827069;29;45369;-91
2021/07/13 21:17:04;;;;;;;;;28.67;23.67;;;;;18.66;77.46;101113.25;4812345;29;45377;-93
2021/07/13 21:19:45;;;;;;;;;28.00;24.33;;;;;18.68;77.62;101115.00;4827994;29;46230;-91
2021/07/13 21:22:22;;;;;;;;;32.33;26.67;;;;;18.54;77.42;101093.84;4827573;29;45404;-92
2021/07/13 21:28:23;;;;;;;;;26.33;22.00;;;;;18.61;76.86;101103.53;4828766;29;45399;-93
2021/07/13 21:30:54;;;;;;;;;23.67;20.67;;;;;18.61;77.21;101108.00;4827022;29;47418;-92
2021/07/13 21:33:33;;;;;;;;;20.33;19.33;;;;;18.62;77.35;101110.63;4828024;29;45460;-91
2021/07/13 21:39:06;;;;;;;;;24.67;19.33;;;;;18.71;77.09;101125.63;4828412;29;45244;-92
2021/07/13 21:41:31;;;;;;;;;23.67;21.00;;;;;18.71;77.09;101116.75;4826446;29;47349;-91
2021/07/13 21:43:56;;;;;;;;;24.00;20.33;;;;;18.58;77.08;101100.91;4811536;29;45588;-90
2021/07/13 21:46:22;;;;;;;;;25.67;22.33;;;;;18.63;77.40;101114.19;4814726;29;45287;-89
